Salt Flat, TX (79847)

11:07 AM MDT on July 25, 2016 (GMT -0600)
Guadalupe Pass | | Change Station

Elev 5453 ft 31.83 °N, 104.81 °W | Updated 16 minutes ago

Partly Cloudy
Partly Cloudy
85 °F
Feels Like 83 °F
N
16
Wind Variable Wind from East
Gusts 24 mph

Today
High -- | Low -- °F
--% Chance of Precip.
Yesterday
High -- | Low -- °F
Precip. -- in
Pressure 29.98 in
Visibility 10.0 miles
Clouds Few 6000 ft
Heat Index 83 °F
Dew Point 53 °F
Humidity 33%
Rainfall 0.00 in
Snow Depth Not available.
6:12 AM 8:01 PM
Waning Gibbous, 64% visible
METAR KGDP 251651Z AUTO 08014G21KT 10SM FEW060 29/12 A3027 RMK AO2 SLP151 T02940117
Pressure 29.98 in
Visibility 10.0 miles
Clouds Few 6000 ft
Heat Index 83 °F
Dew Point 53 °F
Humidity 33%
Rainfall 0.00 in
Snow Depth Not available.
6:12 AM 8:01 PM
Waning Gibbous, 64% visible
METAR KGDP 251651Z AUTO 08014G21KT 10SM FEW060 29/12 A3027 RMK AO2 SLP151 T02940117

10-Day Weather Forecast

Almanac

Astronomy

Jul. 25, 2016 Rise Set
Actual Time
Civil Twilight
Nautical Twilight
Astronomical Twilight
Moon
Length of Visible Light
Length of Day
Tomorrow will be .
, % of the Moon is Illuminated

Today's Extremes

State Highs State Lows

Community

WunderPhotos

Upload Photos

1,927,355 photos uploaded!

WunderBlog® & News

Nearby

Air Quality

  Air Quality AQ Index Pollutant
Not available.

Snow Depth

Station Depth Elevation

Earthquake Activity

City Distance Mag. Time & Date
Minimum magnitude displayed is 2.5.

Coastal Water Temperatures

Place Temperature

Stations

Nearby Weather Stations

Station Location Temp. Windchill Dew Point Humidity Wind Precip. Elev Updated Type
                   

Watches & Warnings

There are currently no watches in effect.